Linden Hill, New York
Current Conditions -  °F | °C
As of 12:51 PM on Friday 24 Oct 2014 (Local Time) from KLGA Reporting Station
Broken Clouds Broken Clouds  
Wind Chill: 58°   Ceiling: 3700
Heat Index: 58°   Visibility: 10mi
Dew Point: 43°   Wind: 18mph
Humidity: 58%   Direction: 320°NW
Pressure: 29.78"   Gusts: 24mph
Location:  40.7686°N, 73.8271°W
Report Text: KLGA 241651Z 32016G21KT 10SM BKN037 BKN140 14/06 A2978 RMK AO2 SLP085 T01440061
Loading
Personal Weather Stations






























Interactive Weather Map
Tropical Storm Tracking
New forecast layout! Learn more

10-Day Weather Forecast

Advertisements
Track Severe Weather on mobile